createdAt,value
2023-05-01T00:00:36.152Z,2.38
2023-05-01T00:05:39.565Z,5.05
2023-05-01T00:10:44.457Z,4.95
2023-05-01T00:15:47.870Z,2.90
2023-05-01T00:20:51.451Z,3.35
2023-05-01T00:25:56.366Z,2.20
2023-05-01T00:30:59.708Z,2.65
2023-05-01T00:36:03.431Z,2.53
2023-05-01T00:41:08.210Z,2.50
2023-05-01T00:46:12.284Z,4.82
2023-05-01T00:51:16.199Z,2.72
2023-05-01T00:56:21.534Z,4.53
2023-05-01T01:01:25.196Z,3.63
2023-05-01T01:06:44.075Z,2.80
2023-05-01T01:12:02.716Z,2.70
2023-05-01T01:17:17.616Z,1.88
2023-05-01T01:22:25.802Z,2.63
2023-05-01T01:28:25.777Z,3.75
2023-05-01T01:33:56.299Z,2.97
2023-05-01T01:39:14.494Z,4.30
2023-05-01T01:44:26.853Z,3.70
2023-05-01T01:49:34.088Z,3.17
2023-05-01T01:54:44.867Z,6.15
2023-05-01T01:59:49.773Z,3.50
2023-05-01T02:04:57.073Z,5.78
2023-05-01T02:10:02.450Z,5.90
2023-05-01T02:15:09.778Z,3.05
2023-05-01T02:20:16.938Z,3.60
2023-05-01T02:25:21.229Z,4.90
2023-05-01T02:30:24.809Z,3.30
2023-05-01T02:35:29.555Z,3.47
2023-05-01T02:40:33.501Z,3.78
2023-05-01T02:45:40.243Z,3.05
2023-05-01T02:50:48.595Z,3.70
2023-05-01T02:55:52.403Z,4.50
2023-05-01T03:00:55.933Z,5.20
2023-05-01T03:06:03.090Z,6.82
2023-05-01T03:11:07.950Z,2.97
2023-05-01T03:16:11.394Z,2.60
2023-05-01T03:21:16.237Z,3.28
2023-05-01T03:26:19.714Z,2.50
2023-05-01T03:31:23.347Z,2.08
2023-05-01T03:36:28.490Z,2.95
2023-05-01T03:41:32.698Z,3.30
2023-05-01T03:46:55.040Z,3.92
2023-05-01T03:57:07.311Z,2.35
2023-05-01T04:02:11.335Z,3.60
2023-05-01T04:07:16.439Z,4.38
2023-05-01T04:12:21.936Z,3.97
2023-05-01T04:17:25.516Z,3.53
2023-05-01T04:22:30.637Z,3.13
2023-05-01T04:27:34.035Z,3.13
2023-05-01T04:32:37.649Z,4.45
2023-05-01T04:37:42.491Z,5.35
2023-05-01T04:42:46.432Z,2.97
2023-05-01T04:47:51.342Z,2.80
2023-05-01T04:52:56.403Z,2.55
2023-05-01T04:58:00.142Z,2.70
2023-05-01T05:03:03.758Z,2.65
2023-05-01T05:08:10.324Z,4.88
2023-05-01T05:13:16.340Z,3.08
2023-05-01T05:18:20.871Z,4.35
2023-05-01T05:23:25.739Z,4.13
2023-05-01T05:28:29.802Z,6.35
2023-05-01T05:33:33.610Z,4.07
2023-05-01T05:38:40.474Z,2.58
2023-05-01T05:43:47.276Z,2.78
2023-05-01T05:48:50.786Z,3.03
2023-05-01T05:53:55.728Z,2.40
2023-05-01T05:59:03.368Z,2.72
2023-05-01T06:04:07.328Z,3.58
2023-05-01T06:09:17.220Z,2.38
2023-05-01T06:14:20.697Z,1.70
2023-05-01T06:19:24.121Z,2.72
2023-05-01T06:24:36.636Z,4.07
2023-05-01T06:29:40.473Z,2.60
2023-05-01T06:34:44.101Z,2.75
2023-05-01T06:39:49.425Z,2.10
2023-05-01T06:44:52.756Z,5.13
2023-05-01T06:49:56.337Z,2.65
2023-05-01T06:55:01.285Z,5.13
2023-05-01T07:00:06.537Z,4.07
2023-05-01T07:05:10.383Z,9.02
2023-05-01T07:10:15.561Z,5.75
2023-05-01T07:15:19.366Z,4.10
2023-05-01T07:20:22.837Z,6.95
2023-05-01T07:25:27.635Z,11.73
2023-05-01T07:30:32.582Z,9.27
2023-05-01T07:35:36.013Z,7.63
2023-05-01T07:40:41.069Z,18.13
2023-05-01T07:45:57.274Z,13.20
2023-05-01T07:51:04.391Z,11.32
2023-05-01T07:56:10.631Z,9.83
2023-05-01T08:01:14.117Z,7.05
2023-05-01T08:06:17.635Z,11.88
2023-05-01T08:11:22.828Z,7.15
2023-05-01T08:16:26.735Z,9.00
2023-05-01T08:21:30.124Z,8.02
2023-05-01T08:26:34.903Z,5.65
2023-05-01T08:31:39.426Z,7.85
2023-05-01T08:36:43.028Z,6.00
2023-05-01T08:41:48.464Z,3.47
2023-05-01T08:47:06.731Z,4.45
2023-05-01T08:52:13.186Z,3.95
2023-05-01T08:57:19.350Z,9.05
2023-05-01T09:02:24.710Z,9.25
2023-05-01T09:07:28.098Z,9.63
2023-05-01T09:12:35.384Z,10.43
2023-05-01T09:17:39.056Z,12.48
2023-05-01T09:22:42.892Z,22.73
2023-05-01T09:27:47.890Z,35.42
2023-05-01T09:33:07.769Z,25.85
2023-05-01T09:38:11.274Z,25.23
2023-05-01T09:43:25.542Z,22.88
2023-05-01T09:48:29.220Z,18.00
2023-05-01T09:53:40.434Z,17.33
2023-05-01T09:58:45.329Z,17.50
2023-05-01T10:03:56.735Z,19.45
2023-05-01T10:09:00.287Z,18.92
2023-05-01T10:14:12.289Z,17.23
2023-05-01T10:19:18.684Z,16.17
2023-05-01T10:24:22.516Z,16.45
2023-05-01T10:29:31.193Z,17.17
2023-05-01T10:34:39.595Z,17.02
2023-05-01T10:39:42.996Z,16.65
2023-05-01T10:44:49.557Z,14.18
2023-05-01T10:50:07.121Z,13.50
2023-05-01T11:00:41.350Z,13.90
2023-05-01T11:06:07.119Z,14.60
2023-05-01T11:11:50.319Z,15.18
2023-05-01T11:16:55.342Z,11.30
2023-05-01T11:21:59.558Z,9.77
2023-05-01T11:27:03.480Z,9.15
2023-05-01T11:32:10.809Z,8.68
2023-05-01T11:37:14.629Z,9.93
2023-05-01T11:42:22.440Z,8.40
2023-05-01T11:47:27.743Z,7.97
2023-05-01T11:52:31.233Z,6.10
2023-05-01T11:57:50.762Z,6.18
2023-05-01T12:03:06.411Z,8.48
2023-05-01T12:08:15.191Z,6.93
2023-05-01T12:13:19.724Z,6.50
2023-05-01T12:18:24.837Z,5.63
2023-05-01T12:23:37.624Z,6.32
2023-05-01T12:28:41.346Z,6.25
2023-05-01T12:33:56.029Z,7.57
2023-05-01T12:39:02.503Z,5.80
2023-05-01T12:44:27.795Z,5.43
2023-05-01T12:49:33.449Z,6.43
2023-05-01T12:54:39.845Z,7.00
2023-05-01T12:59:47.355Z,5.95
2023-05-01T13:04:52.143Z,5.65
2023-05-01T13:09:59.201Z,5.10
2023-05-01T13:15:02.949Z,4.30
2023-05-01T13:20:10.169Z,5.35
2023-05-01T13:25:20.683Z,6.18
2023-05-01T13:30:34.963Z,3.90
2023-05-01T13:35:41.322Z,4.47
2023-05-01T13:40:44.758Z,5.03
2023-05-01T13:45:50.755Z,4.97
2023-05-01T13:50:55.538Z,4.15
2023-05-01T13:55:58.982Z,4.97
2023-05-01T14:01:03.978Z,5.88
2023-05-01T14:06:11.505Z,4.35
2023-05-01T14:11:16.818Z,5.07
2023-05-01T14:16:26.504Z,5.20
2023-05-01T14:21:31.928Z,4.57
2023-05-01T14:26:37.300Z,4.35
2023-05-01T14:31:40.892Z,4.00
2023-05-01T14:36:45.850Z,4.72
2023-05-01T14:41:49.378Z,4.72
2023-05-01T14:46:52.950Z,4.53
2023-05-01T14:51:57.773Z,4.07
2023-05-01T14:57:03.836Z,5.75
2023-05-01T15:02:07.883Z,11.25
2023-05-01T15:07:12.740Z,9.93
2023-05-01T15:12:16.270Z,9.57
2023-05-01T15:17:19.710Z,8.95
2023-05-01T15:22:24.673Z,11.48
2023-05-01T15:27:28.307Z,11.85
2023-05-01T15:32:31.832Z,11.65
2023-05-01T15:37:36.821Z,10.80
2023-05-01T15:42:40.829Z,10.95
2023-05-01T15:47:44.634Z,11.40
2023-05-01T15:52:49.384Z,10.73
2023-05-01T15:57:52.913Z,9.77
2023-05-01T16:02:56.270Z,10.77
2023-05-01T16:08:02.518Z,10.57
2023-05-01T16:13:06.980Z,11.15
2023-05-01T16:18:11.393Z,12.45
2023-05-01T16:23:16.673Z,13.55
2023-05-01T16:28:20.138Z,12.02
2023-05-01T16:33:24.315Z,11.52
2023-05-01T16:38:29.356Z,11.43
2023-05-01T16:43:32.695Z,12.25
2023-05-01T16:48:36.714Z,8.82
2023-05-01T16:53:41.448Z,13.88
2023-05-01T16:58:44.826Z,11.40
2023-05-01T17:03:48.471Z,13.82
2023-05-01T17:08:54.692Z,15.77
2023-05-01T17:13:58.100Z,14.38
2023-05-01T17:19:04.293Z,12.43
2023-05-01T17:24:09.448Z,13.05
2023-05-01T17:29:12.866Z,11.20
2023-05-01T17:34:16.547Z,11.73
2023-05-01T17:39:21.704Z,11.73
2023-05-01T17:44:25.098Z,11.07
2023-05-01T17:49:28.497Z,9.45
2023-05-01T17:54:33.275Z,6.95
2023-05-01T17:59:37.161Z,10.98
2023-05-01T18:04:40.558Z,7.93
2023-05-01T18:09:45.380Z,7.63
2023-05-01T18:14:48.770Z,9.35
2023-05-01T18:19:52.309Z,8.63
2023-05-01T18:24:57.306Z,7.22
2023-05-01T18:30:00.986Z,10.32
2023-05-01T18:35:05.198Z,6.68
2023-05-01T18:40:12.592Z,24.98
2023-05-01T18:45:16.105Z,53.72
2023-05-01T18:50:21.941Z,45.53
2023-05-01T18:55:26.937Z,34.95
2023-05-01T19:00:30.727Z,33.42
2023-05-01T19:05:34.152Z,30.70
2023-05-01T19:10:38.974Z,28.48
2023-05-01T19:15:43.528Z,27.80
2023-05-01T19:20:46.999Z,29.95
2023-05-01T19:25:51.830Z,26.15
2023-05-01T19:30:55.352Z,25.05
2023-05-01T19:35:58.934Z,24.60
2023-05-01T19:41:04.074Z,21.23
2023-05-01T19:46:08.167Z,21.63
2023-05-01T19:51:11.947Z,20.58
2023-05-01T19:56:16.716Z,18.23
2023-05-01T20:01:20.564Z,18.50
2023-05-01T20:06:24.086Z,20.48
2023-05-01T20:11:28.973Z,14.43
2023-05-01T20:16:33.087Z,17.52
2023-05-01T20:21:37.042Z,15.88
2023-05-01T20:26:41.884Z,14.98
2023-05-01T20:31:45.313Z,13.98
2023-05-01T20:36:49.088Z,12.75
2023-05-01T20:41:54.166Z,13.85
2023-05-01T20:46:57.666Z,12.50
2023-05-01T20:52:01.184Z,11.52
2023-05-01T20:57:05.996Z,13.18
2023-05-01T21:02:09.627Z,13.82
2023-05-01T21:07:13.711Z,10.55
2023-05-01T21:12:18.462Z,10.52
2023-05-01T21:17:21.926Z,12.48
2023-05-01T21:22:25.922Z,11.15
2023-05-01T21:27:30.689Z,11.40
2023-05-01T21:32:40.060Z,11.40
2023-05-01T21:37:45.732Z,9.80
2023-05-01T21:42:52.184Z,11.88
2023-05-01T21:47:55.592Z,10.85
2023-05-01T21:53:00.514Z,9.85
2023-05-01T21:58:05.253Z,11.30
2023-05-01T22:03:10.547Z,8.95
2023-05-01T22:08:14.011Z,10.25
2023-05-01T22:13:18.724Z,9.25
2023-05-01T22:18:22.829Z,11.13
2023-05-01T22:23:26.281Z,10.60
2023-05-01T22:28:31.014Z,8.18
2023-05-01T22:33:34.377Z,12.48
2023-05-01T22:38:37.864Z,10.82
2023-05-01T22:43:42.713Z,9.82
2023-05-01T22:48:46.173Z,12.60
2023-05-01T22:53:49.652Z,10.02
2023-05-01T22:58:55.451Z,12.13
2023-05-01T23:03:58.964Z,12.57
2023-05-01T23:09:02.620Z,11.30
2023-05-01T23:14:07.373Z,9.90
2023-05-01T23:19:21.224Z,10.73
2023-05-01T23:24:24.626Z,9.73
2023-05-01T23:29:29.508Z,9.75
2023-05-01T23:34:33.717Z,12.15
2023-05-01T23:39:37.034Z,10.38
2023-05-01T23:44:41.887Z,9.63
2023-05-01T23:49:45.396Z,9.07
2023-05-01T23:54:48.847Z,13.02
2023-05-01T23:59:54.065Z,8.75
